Time;durP1;ratioP1;P1;durP2;ratioP2;P2;SDS_P1;SDS_P2;PMS_P1;PMS_P2;Temp;Humidity;BMP_temperature;BMP_pressure;BME280_temperature;BME280_humidity;BME280_pressure;Samples;Min_cycle;Max_cycle;Signal;HPM_P1;HPM_P2
2024/01/10 00:01:07;;;;;;;4.00;3.78;;;15.10;60.90;;;;;;5025058;28;20116;-84
2024/01/10 00:03:33;;;;;;;4.30;4.07;;;15.00;60.70;;;;;;5012474;28;20049;-83
2024/01/10 00:05:58;;;;;;;4.15;3.95;;;15.10;61.60;;;;;;5020616;28;20179;-83
2024/01/10 00:08:24;;;;;;;4.55;4.22;;;15.00;60.90;;;;;;5019560;28;20045;-83
2024/01/10 00:10:51;;;;;;;3.75;3.50;;;15.00;60.80;;;;;;5018702;28;20176;-83
2024/01/10 00:13:17;;;;;;;4.22;4.00;;;15.00;60.50;;;;;;5019073;28;20477;-83
2024/01/10 00:15:42;;;;;;;4.25;4.00;;;15.00;60.70;;;;;;5018411;28;20038;-83
2024/01/10 00:18:08;;;;;;;3.67;3.47;;;15.00;60.80;;;;;;5017262;28;20042;-83
2024/01/10 00:20:34;;;;;;;4.00;3.80;;;15.00;60.70;;;;;;5019071;28;20037;-83
2024/01/10 00:22:59;;;;;;;3.70;3.50;;;15.00;60.90;;;;;;5020821;28;20524;-84
2024/01/10 00:25:25;;;;;;;4.38;4.07;;;15.00;60.70;;;;;;5020507;28;20153;-83
2024/01/10 00:27:50;;;;;;;3.67;3.47;;;15.00;60.50;;;;;;5017434;28;20120;-83
2024/01/10 00:30:16;;;;;;;4.10;3.80;;;15.00;60.70;;;;;;5020055;28;20073;-84
2024/01/10 00:32:41;;;;;;;3.42;3.22;;;15.00;60.50;;;;;;5021809;28;20034;-83
2024/01/10 00:35:07;;;;;;;4.10;3.90;;;15.00;60.70;;;;;;5017231;28;20057;-88
2024/01/10 00:37:33;;;;;;;3.60;3.40;;;15.00;60.70;;;;;;5006262;28;20039;-89
2024/01/10 00:39:58;;;;;;;3.67;3.47;;;15.00;61.00;;;;;;5016643;28;20045;-88
2024/01/10 00:42:24;;;;;;;3.70;3.50;;;15.00;60.80;;;;;;4996432;28;20072;-88
2024/01/10 00:44:49;;;;;;;4.20;3.97;;;14.90;61.50;;;;;;5007017;28;20072;-89
2024/01/10 00:47:15;;;;;;;3.92;3.63;;;14.90;60.70;;;;;;5007904;28;20061;-89
2024/01/10 00:49:40;;;;;;;3.90;3.63;;;14.90;60.80;;;;;;5040955;28;20050;-88
2024/01/10 00:52:06;;;;;;;3.72;3.53;;;14.90;61.10;;;;;;5023461;28;20049;-84
2024/01/10 00:54:31;;;;;;;3.92;3.72;;;14.90;61.00;;;;;;4996806;28;20046;-85
2024/01/10 00:56:57;;;;;;;4.65;4.35;;;14.90;61.00;;;;;;4969117;28;20046;-84
2024/01/10 00:59:22;;;;;;;4.03;3.72;;;14.90;60.90;;;;;;5013505;28;20042;-85
2024/01/10 01:01:48;;;;;;;3.55;3.35;;;14.90;60.90;;;;;;5018479;28;20048;-84
2024/01/10 01:04:14;;;;;;;4.05;3.75;;;14.90;61.10;;;;;;5003384;28;20072;-84
2024/01/10 01:06:39;;;;;;;3.63;3.42;;;14.80;60.90;;;;;;5021643;28;20038;-85
2024/01/10 01:09:05;;;;;;;3.80;3.60;;;14.90;61.30;;;;;;5008052;28;20046;-83
2024/01/10 01:11:30;;;;;;;4.00;3.80;;;14.90;61.10;;;;;;4985444;28;20028;-84
2024/01/10 01:13:56;;;;;;;4.07;3.78;;;14.80;61.60;;;;;;5024794;28;20092;-84
2024/01/10 01:16:21;;;;;;;3.75;3.55;;;14.80;60.90;;;;;;5009641;28;20052;-83
2024/01/10 01:18:47;;;;;;;3.20;3.00;;;14.80;61.00;;;;;;4994781;28;20492;-83
2024/01/10 01:21:12;;;;;;;3.80;3.50;;;14.80;61.00;;;;;;5012221;28;20483;-85
2024/01/10 01:23:38;;;;;;;3.72;3.53;;;14.80;61.90;;;;;;4999931;28;20582;-83
2024/01/10 01:26:04;;;;;;;3.08;2.88;;;14.80;61.10;;;;;;4999414;28;20099;-84
2024/01/10 01:28:30;;;;;;;3.55;3.25;;;14.80;61.10;;;;;;5027255;28;20072;-84
2024/01/10 01:30:55;;;;;;;3.53;3.30;;;14.80;61.20;;;;;;5007790;28;20065;-84
2024/01/10 01:33:21;;;;;;;3.30;3.10;;;14.80;61.20;;;;;;5006742;28;20038;-84
2024/01/10 01:35:46;;;;;;;3.05;2.85;;;14.80;61.10;;;;;;4974791;28;20092;-84
2024/01/10 01:38:12;;;;;;;3.30;3.10;;;14.80;61.20;;;;;;4998783;28;20042;-84
2024/01/10 01:40:37;;;;;;;3.67;3.38;;;14.80;60.90;;;;;;5004054;28;20041;-85
2024/01/10 01:43:21;;;;;;;3.70;3.45;;;14.80;61.00;;;;;;5022409;28;20529;-85
2024/01/10 01:45:48;;;;;;;3.50;3.30;;;14.80;61.20;;;;;;4991868;28;20108;-84
2024/01/10 01:48:13;;;;;;;3.40;3.10;;;14.80;61.10;;;;;;5002975;28;20053;-84
2024/01/10 01:50:40;;;;;;;3.97;3.67;;;14.80;61.00;;;;;;4993658;28;20034;-84
2024/01/10 01:53:05;;;;;;;3.33;3.13;;;14.80;60.90;;;;;;5041036;28;20041;-84
2024/01/10 01:55:31;;;;;;;3.42;3.22;;;14.80;61.00;;;;;;5026974;28;20095;-85
2024/01/10 01:57:56;;;;;;;3.10;2.90;;;14.80;62.00;;;;;;4997199;28;20038;-85
2024/01/10 02:00:22;;;;;;;3.80;3.60;;;14.80;61.20;;;;;;5003306;28;20045;-84
2024/01/10 02:02:48;;;;;;;4.13;3.85;;;14.70;60.90;;;;;;5023715;28;20042;-84
2024/01/10 02:05:15;;;;;;;3.97;3.67;;;14.70;61.10;;;;;;5021950;28;20549;-83
2024/01/10 02:07:40;;;;;;;3.60;3.40;;;14.80;61.00;;;;;;5025807;28;20120;-83
2024/01/10 02:10:06;;;;;;;4.63;2.90;;;14.70;61.00;;;;;;5026877;28;20068;-84
2024/01/10 02:12:32;;;;;;;3.33;3.13;;;14.70;61.20;;;;;;5024837;28;20457;-82
2024/01/10 02:14:58;;;;;;;3.17;2.97;;;14.70;61.80;;;;;;5021516;28;20062;-83
2024/01/10 02:17:24;;;;;;;3.75;3.55;;;14.70;61.20;;;;;;5020911;28;20045;-84
2024/01/10 02:19:49;;;;;;;3.22;3.03;;;14.70;61.20;;;;;;4998726;28;20496;-84
2024/01/10 02:22:15;;;;;;;3.60;3.40;;;14.70;61.00;;;;;;5009239;28;20049;-84
2024/01/10 02:24:41;;;;;;;3.35;3.15;;;14.70;61.00;;;;;;5038896;28;20041;-84
2024/01/10 02:27:06;;;;;;;3.50;3.30;;;14.70;62.00;;;;;;5022017;28;20482;-84
2024/01/10 02:29:33;;;;;;;3.67;3.47;;;14.70;61.30;;;;;;5007456;28;20045;-84
2024/01/10 02:31:59;;;;;;;3.30;3.03;;;14.70;61.30;;;;;;5003930;28;20061;-84
2024/01/10 02:34:24;;;;;;;3.83;3.63;;;14.70;61.20;;;;;;5020571;28;20080;-83
2024/01/10 02:36:50;;;;;;;3.67;3.40;;;14.70;61.20;;;;;;5020875;28;20049;-84
2024/01/10 02:39:15;;;;;;;3.20;3.00;;;14.70;61.00;;;;;;5022783;28;20045;-83
2024/01/10 02:41:41;;;;;;;3.40;3.20;;;14.70;61.00;;;;;;5006574;28;20550;-83
2024/01/10 02:44:06;;;;;;;3.30;3.10;;;14.60;61.10;;;;;;5011519;28;20045;-82
2024/01/10 02:46:32;;;;;;;3.08;2.88;;;14.70;61.00;;;;;;5007345;28;20533;-83
2024/01/10 02:48:57;;;;;;;3.55;3.35;;;14.70;61.20;;;;;;5019139;28;20029;-83
2024/01/10 02:51:24;;;;;;;3.22;3.03;;;14.70;61.10;;;;;;5006172;28;20124;-83
2024/01/10 02:53:50;;;;;;;3.22;3.03;;;14.60;61.10;;;;;;5021531;28;20041;-84
2024/01/10 02:56:15;;;;;;;3.40;3.20;;;14.60;61.20;;;;;;5021206;28;20065;-85
2024/01/10 02:58:41;;;;;;;3.33;3.13;;;14.60;61.10;;;;;;5024168;28;20056;-85
2024/01/10 03:01:06;;;;;;;3.75;3.45;;;14.60;61.10;;;;;;5022382;28;20507;-85
2024/01/10 03:03:32;;;;;;;3.38;3.17;;;14.70;61.10;;;;;;5004872;28;20487;-86
2024/01/10 03:05:57;;;;;;;3.35;3.15;;;14.60;60.90;;;;;;5019053;28;20069;-86
2024/01/10 03:08:23;;;;;;;2.97;2.80;;;14.60;61.20;;;;;;5037528;28;20055;-85
2024/01/10 03:10:49;;;;;;;3.10;2.90;;;14.60;61.20;;;;;;5031595;28;20100;-86
2024/01/10 03:13:14;;;;;;;3.13;2.92;;;14.60;61.30;;;;;;5005794;28;20534;-83
2024/01/10 03:15:40;;;;;;;3.20;2.90;;;14.60;61.10;;;;;;5018392;28;20084;-83
2024/01/10 03:18:05;;;;;;;3.22;3.03;;;14.60;61.10;;;;;;5020646;28;20103;-83
2024/01/10 03:20:31;;;;;;;2.90;2.70;;;14.60;61.10;;;;;;5021016;28;20036;-83
2024/01/10 03:22:56;;;;;;;3.55;3.35;;;14.60;61.00;;;;;;5023488;28;20084;-84
2024/01/10 03:25:22;;;;;;;3.40;3.20;;;14.60;61.10;;;;;;5017986;28;20503;-84
2024/01/10 03:27:47;;;;;;;3.42;3.22;;;14.60;61.10;;;;;;5017888;28;20411;-85
2024/01/10 03:30:13;;;;;;;3.80;3.60;;;14.60;61.10;;;;;;4993400;28;20041;-85
2024/01/10 03:32:39;;;;;;;3.47;3.28;;;14.60;61.20;;;;;;5006963;28;20041;-85
2024/01/10 03:35:06;;;;;;;3.40;3.10;;;14.60;61.10;;;;;;5021857;28;20034;-85
2024/01/10 03:37:31;;;;;;;2.88;2.78;;;14.60;61.20;;;;;;5024903;28;20069;-86
2024/01/10 03:39:58;;;;;;;3.00;2.80;;;14.60;61.30;;;;;;5022587;28;20121;-86
2024/01/10 03:42:24;;;;;;;3.72;3.42;;;14.60;61.20;;;;;;5007232;28;20508;-84
2024/01/10 03:44:49;;;;;;;3.10;2.90;;;14.60;61.10;;;;;;5018882;28;20044;-85
2024/01/10 03:47:15;;;;;;;3.05;2.85;;;14.50;61.10;;;;;;5020152;28;20559;-84
2024/01/10 03:49:41;;;;;;;3.20;3.00;;;14.50;61.10;;;;;;5005612;28;20068;-85
2024/01/10 03:52:06;;;;;;;3.35;3.15;;;14.60;61.10;;;;;;5034842;28;20053;-84
2024/01/10 03:54:33;;;;;;;3.47;3.28;;;14.50;61.20;;;;;;5020563;28;20128;-84
2024/01/10 03:56:59;;;;;;;3.72;3.53;;;14.50;61.20;;;;;;4984178;28;20045;-83
2024/01/10 03:59:24;;;;;;;3.00;2.83;;;14.50;61.20;;;;;;4994062;28;20045;-84
2024/01/10 04:01:50;;;;;;;3.60;3.40;;;14.50;61.00;;;;;;5002810;28;20042;-84
2024/01/10 04:04:15;;;;;;;3.00;2.80;;;14.50;61.90;;;;;;5009772;28;20407;-84
2024/01/10 04:06:41;;;;;;;3.60;3.40;;;14.50;61.00;;;;;;5012206;28;20119;-84
2024/01/10 04:09:08;;;;;;;3.17;2.97;;;14.50;61.10;;;;;;5014650;28;20053;-84
2024/01/10 04:11:33;;;;;;;3.30;3.10;;;14.50;61.20;;;;;;5007167;28;20037;-83
2024/01/10 04:13:59;;;;;;;2.95;2.75;;;14.50;61.20;;;;;;4987483;28;20053;-85
2024/01/10 04:16:27;;;;;;;3.13;2.92;;;14.50;61.00;;;;;;4999567;28;20041;-85
2024/01/10 04:18:53;;;;;;;3.30;3.17;;;14.50;61.30;;;;;;5019750;28;20049;-85
2024/01/10 04:21:18;;;;;;;3.10;2.90;;;14.50;61.10;;;;;;5004808;28;20033;-85
2024/01/10 04:23:44;;;;;;;2.88;2.70;;;14.50;61.10;;;;;;5002147;28;20073;-86
2024/01/10 04:26:09;;;;;;;2.78;2.67;;;14.50;61.30;;;;;;5017681;28;20403;-85
2024/01/10 04:28:35;;;;;;;3.05;2.85;;;14.50;61.10;;;;;;5012374;28;20408;-86
2024/01/10 04:31:01;;;;;;;3.10;2.90;;;14.50;61.20;;;;;;4985198;28;20037;-84
2024/01/10 04:33:26;;;;;;;3.20;3.00;;;14.50;61.20;;;;;;5007157;28;20045;-87
2024/01/10 04:35:52;;;;;;;2.67;2.58;;;14.50;61.40;;;;;;5002338;28;20644;-87
2024/01/10 04:38:18;;;;;;;2.88;2.67;;;14.50;61.00;;;;;;5003311;28;20053;-86
2024/01/10 04:40:43;;;;;;;3.20;3.00;;;14.50;61.20;;;;;;5020605;28;20029;-84
2024/01/10 04:43:09;;;;;;;3.10;2.90;;;14.50;61.70;;;;;;5051366;28;20055;-82
2024/01/10 04:45:35;;;;;;;2.38;2.28;;;14.50;61.50;;;;;;5009713;28;20077;-82
2024/01/10 04:48:00;;;;;;;2.72;2.53;;;14.50;61.20;;;;;;5023337;28;20057;-82
2024/01/10 04:50:26;;;;;;;3.10;2.90;;;14.50;61.00;;;;;;5009597;28;20381;-84
2024/01/10 04:52:51;;;;;;;2.58;2.47;;;14.50;60.90;;;;;;5025515;28;20522;-84
2024/01/10 04:55:17;;;;;;;2.55;2.45;;;14.50;60.90;;;;;;5025068;28;20102;-83
2024/01/10 04:57:43;;;;;;;2.75;2.65;;;14.40;60.90;;;;;;4993561;28;20037;-82
2024/01/10 05:00:08;;;;;;;2.65;2.45;;;14.40;61.20;;;;;;5001057;28;20037;-86
2024/01/10 05:02:34;;;;;;;2.58;2.47;;;14.40;61.00;;;;;;5008135;28;20287;-86
2024/01/10 05:04:59;;;;;;;2.45;2.35;;;14.40;60.90;;;;;;5024310;28;20049;-85
2024/01/10 05:07:25;;;;;;;2.75;2.60;;;14.40;60.90;;;;;;5026852;28;20045;-83
2024/01/10 05:09:51;;;;;;;2.67;2.58;;;14.40;60.70;;;;;;5019595;28;20025;-84
2024/01/10 05:12:16;;;;;;;2.50;2.40;;;14.40;61.10;;;;;;4999977;28;20068;-84
2024/01/10 05:14:42;;;;;;;2.35;2.25;;;14.50;61.30;;;;;;5014229;28;20518;-84
2024/01/10 05:17:07;;;;;;;2.75;2.65;;;14.40;60.90;;;;;;5036810;28;20385;-84
2024/01/10 05:19:33;;;;;;;2.92;2.72;;;14.40;61.10;;;;;;5044880;28;20107;-84
2024/01/10 05:21:58;;;;;;;2.35;2.25;;;14.40;61.00;;;;;;4993087;28;20122;-84
2024/01/10 05:24:24;;;;;;;2.85;2.65;;;14.40;60.80;;;;;;5016160;28;20048;-84
2024/01/10 05:26:51;;;;;;;2.65;2.55;;;14.40;60.90;;;;;;5016302;28;20559;-83
2024/01/10 05:29:19;;;;;;;2.70;2.60;;;14.40;61.10;;;;;;5007625;28;20053;-85
2024/01/10 05:31:46;;;;;;;2.10;2.00;;;14.40;60.90;;;;;;5007604;28;20125;-84
2024/01/10 05:34:11;;;;;;;2.80;2.60;;;14.40;61.80;;;;;;5014357;28;20037;-83
2024/01/10 05:36:37;;;;;;;2.05;1.95;;;14.40;60.90;;;;;;4987075;28;20060;-84
2024/01/10 05:39:03;;;;;;;2.40;2.20;;;14.40;61.10;;;;;;5003612;28;20073;-86
2024/01/10 05:41:29;;;;;;;2.88;2.78;;;14.40;60.80;;;;;;4990450;28;20484;-87
2024/01/10 05:43:55;;;;;;;2.90;2.70;;;14.40;61.00;;;;;;5036773;28;20082;-86
2024/01/10 05:46:20;;;;;;;2.60;2.50;;;14.40;60.90;;;;;;5024547;28;20045;-86
2024/01/10 05:48:46;;;;;;;2.28;2.17;;;14.40;61.20;;;;;;5024570;28;20033;-82
2024/01/10 05:51:12;;;;;;;2.80;2.70;;;14.40;60.90;;;;;;4999738;28;20061;-81
2024/01/10 05:53:38;;;;;;;3.00;2.80;;;14.40;60.70;;;;;;5023243;28;20087;-82
2024/01/10 05:56:05;;;;;;;2.60;2.50;;;14.40;60.70;;;;;;5022917;28;20104;-81
2024/01/10 05:58:31;;;;;;;5.30;4.78;;;14.40;60.90;;;;;;5004518;28;20037;-83
2024/01/10 06:00:56;;;;;;;27.08;13.38;;;14.40;61.00;;;;;;5021606;28;20041;-84
2024/01/10 06:03:22;;;;;;;13.90;8.00;;;14.50;60.90;;;;;;4985297;28;20511;-87
2024/01/10 06:05:47;;;;;;;6.13;5.22;;;14.60;62.60;;;;;;4992923;28;20415;-87
2024/01/10 06:08:14;;;;;;;5.40;4.57;;;14.60;62.60;;;;;;5011534;28;20062;-82
2024/01/10 06:10:39;;;;;;;6.53;3.83;;;14.60;63.10;;;;;;5053381;28;20037;-82
2024/01/10 06:13:05;;;;;;;4.63;4.05;;;14.60;63.00;;;;;;4991294;28;20049;-83
2024/01/10 06:15:30;;;;;;;4.25;3.85;;;14.60;63.30;;;;;;4972637;28;20058;-84
2024/01/10 06:17:56;;;;;;;4.25;3.40;;;14.70;63.10;;;;;;5002072;28;20090;-84
2024/01/10 06:20:22;;;;;;;3.53;3.22;;;14.70;63.10;;;;;;4997311;28;20043;-83
2024/01/10 06:22:47;;;;;;;9.93;3.50;;;14.70;63.80;;;;;;5006956;28;20120;-84
2024/01/10 06:25:13;;;;;;;3.45;3.15;;;14.70;63.80;;;;;;5020776;28;20402;-82
2024/01/10 06:27:39;;;;;;;4.57;3.08;;;14.70;63.80;;;;;;5007905;28;20517;-83
2024/01/10 06:30:07;;;;;;;3.47;3.28;;;14.80;64.00;;;;;;4984228;28;20409;-83
2024/01/10 06:32:32;;;;;;;2.90;2.72;;;14.80;64.00;;;;;;4998315;28;20711;-83
2024/01/10 06:35:00;;;;;;;3.33;3.13;;;14.90;63.50;;;;;;4980525;28;20041;-82
2024/01/10 06:37:25;;;;;;;3.17;2.97;;;14.90;63.60;;;;;;4993208;28;20042;-84
2024/01/10 06:39:51;;;;;;;3.60;3.28;;;15.00;64.20;;;;;;5054364;28;20043;-83
2024/01/10 06:42:16;;;;;;;2.97;2.70;;;15.10;63.60;;;;;;5033566;28;20816;-85
2024/01/10 06:44:42;;;;;;;3.10;2.83;;;15.20;63.40;;;;;;4687343;28;9999739;-85
2024/01/10 06:47:08;;;;;;;3.65;3.17;;;15.20;63.00;;;;;;5027982;28;20057;-86
2024/01/10 06:49:33;;;;;;;3.00;2.70;;;15.20;62.70;;;;;;4986103;28;20050;-86
2024/01/10 06:52:00;;;;;;;3.10;2.90;;;15.20;63.90;;;;;;4976059;28;20033;-86
2024/01/10 06:54:26;;;;;;;2.80;2.60;;;15.20;63.20;;;;;;5012973;28;20059;-86
2024/01/10 06:56:51;;;;;;;3.30;3.10;;;15.20;63.30;;;;;;4988837;28;20041;-86
2024/01/10 06:59:17;;;;;;;3.22;2.97;;;15.20;63.60;;;;;;5017789;28;20070;-86
2024/01/10 07:01:42;;;;;;;3.10;2.90;;;15.20;63.00;;;;;;5002155;28;20049;-86
2024/01/10 07:04:08;;;;;;;2.88;2.67;;;15.20;63.00;;;;;;5017461;28;20065;-86
2024/01/10 07:06:33;;;;;;;2.92;2.72;;;15.20;63.00;;;;;;5001146;28;20731;-85
2024/01/10 07:08:59;;;;;;;3.08;2.78;;;15.30;62.90;;;;;;5004128;28;20108;-86
2024/01/10 07:11:28;;;;;;;3.03;2.83;;;15.30;62.80;;;;;;5013909;28;20040;-85
2024/01/10 07:13:53;;;;;;;2.97;2.78;;;15.30;62.80;;;;;;5001835;28;20045;-86
2024/01/10 07:16:19;;;;;;;2.92;2.53;;;15.30;62.80;;;;;;5019762;28;20041;-85
2024/01/10 07:18:46;;;;;;;3.08;2.88;;;15.30;62.80;;;;;;5002848;28;20049;-86
2024/01/10 07:21:11;;;;;;;2.80;2.60;;;15.30;62.60;;;;;;4969917;28;20484;-85
2024/01/10 07:23:40;;;;;;;3.13;2.92;;;15.30;62.50;;;;;;5015723;28;20638;-85
2024/01/10 07:26:06;;;;;;;2.70;2.50;;;15.40;62.50;;;;;;5034246;28;20131;-86
2024/01/10 07:28:32;;;;;;;3.28;2.97;;;15.40;62.30;;;;;;5002688;28;20128;-85
2024/01/10 07:30:58;;;;;;;2.80;2.60;;;15.40;62.10;;;;;;5019514;28;20053;-88
2024/01/10 07:33:23;;;;;;;3.03;2.83;;;15.50;62.10;;;;;;4998537;28;20531;-84
2024/01/10 07:35:49;;;;;;;3.03;2.70;;;15.60;62.00;;;;;;4996897;28;20113;-83
2024/01/10 07:38:14;;;;;;;3.00;2.80;;;15.50;62.10;;;;;;5002398;28;20026;-83
2024/01/10 07:40:40;;;;;;;2.85;2.65;;;15.50;62.00;;;;;;5020066;28;20038;-83
2024/01/10 07:43:06;;;;;;;2.55;2.45;;;15.50;62.10;;;;;;5006211;28;20494;-82
2024/01/10 07:45:33;;;;;;;2.70;2.40;;;15.50;62.10;;;;;;4983714;28;20053;-83
2024/01/10 07:47:59;;;;;;;2.58;2.38;;;15.50;62.10;;;;;;4982599;28;20069;-83
2024/01/10 07:50:27;;;;;;;6.97;2.70;;;15.50;62.10;;;;;;4970012;28;20034;-83
2024/01/10 07:52:52;;;;;;;3.03;2.70;;;15.40;62.30;;;;;;4994750;28;20041;-83
2024/01/10 07:55:18;;;;;;;3.55;2.90;;;15.40;62.30;;;;;;5024212;28;20033;-83
2024/01/10 07:57:43;;;;;;;3.25;3.05;;;15.40;62.30;;;;;;5019063;28;20029;-83
2024/01/10 08:00:10;;;;;;;3.03;2.83;;;15.40;63.10;;;;;;5005672;28;20034;-83
2024/01/10 08:02:36;;;;;;;3.05;2.53;;;15.30;62.40;;;;;;4991180;28;20049;-82
2024/01/10 08:05:05;;;;;;;2.90;2.70;;;15.30;62.10;;;;;;5021959;28;20120;-83
2024/01/10 08:07:32;;;;;;;3.63;2.67;;;15.40;62.10;;;;;;4998932;28;20049;-83
2024/01/10 08:09:59;;;;;;;3.05;2.85;;;15.30;62.10;;;;;;4990550;28;20036;-83
2024/01/10 08:12:24;;;;;;;3.08;2.88;;;15.30;61.90;;;;;;5017026;28;20064;-83
2024/01/10 08:14:50;;;;;;;3.00;2.80;;;15.30;61.80;;;;;;5004301;28;20499;-83
2024/01/10 08:17:15;;;;;;;3.00;2.80;;;15.30;61.80;;;;;;5020084;28;20451;-83
2024/01/10 08:19:42;;;;;;;3.22;3.03;;;15.40;61.90;;;;;;5005794;28;20099;-83
2024/01/10 08:22:07;;;;;;;2.85;2.65;;;15.30;61.90;;;;;;5023577;28;20041;-83
2024/01/10 08:24:33;;;;;;;3.55;3.35;;;15.30;61.80;;;;;;4985746;28;20037;-83
2024/01/10 08:26:59;;;;;;;2.92;2.72;;;15.30;62.50;;;;;;5005732;28;20041;-83
2024/01/10 08:29:30;;;;;;;3.47;3.17;;;15.30;61.70;;;;;;5019537;28;20132;-83
2024/01/10 08:31:56;;;;;;;2.90;2.70;;;15.30;61.60;;;;;;5019739;28;20115;-83
2024/01/10 08:34:22;;;;;;;2.97;2.78;;;15.30;61.70;;;;;;5043167;28;20037;-83
2024/01/10 08:36:50;;;;;;;2.90;2.70;;;15.30;61.70;;;;;;4997169;28;20045;-83
2024/01/10 08:39:16;;;;;;;3.55;3.35;;;15.30;61.60;;;;;;5021460;28;20523;-82
2024/01/10 08:41:44;;;;;;;3.00;2.80;;;15.30;61.60;;;;;;5003769;28;20100;-83
2024/01/10 08:44:10;;;;;;;2.90;2.70;;;15.30;62.40;;;;;;4995566;28;20046;-83
2024/01/10 08:46:35;;;;;;;3.25;3.05;;;15.30;61.60;;;;;;5021655;28;20049;-83
2024/01/10 08:49:01;;;;;;;3.00;2.70;;;15.30;61.60;;;;;;4990589;28;20045;-83
2024/01/10 08:51:27;;;;;;;2.85;2.65;;;15.30;61.50;;;;;;4989055;28;20045;-83
2024/01/10 08:53:52;;;;;;;3.10;2.90;;;15.30;61.60;;;;;;5012044;28;20508;-83
2024/01/10 08:56:19;;;;;;;3.10;2.90;;;15.30;61.40;;;;;;4968544;28;20038;-83
2024/01/10 08:58:45;;;;;;;2.70;2.50;;;15.30;61.40;;;;;;4998668;28;20048;-82
2024/01/10 09:01:11;;;;;;;2.58;2.47;;;15.30;61.40;;;;;;5022107;28;20037;-83
2024/01/10 09:03:37;;;;;;;2.83;2.63;;;15.30;61.30;;;;;;5005314;28;20563;-83
2024/01/10 09:06:03;;;;;;;2.88;2.67;;;15.30;61.30;;;;;;5020823;28;20515;-83
2024/01/10 09:08:29;;;;;;;3.03;2.83;;;15.30;61.30;;;;;;4997654;28;20037;-83
2024/01/10 09:10:55;;;;;;;2.80;2.60;;;15.30;61.30;;;;;;5005906;28;20045;-83
2024/01/10 09:13:21;;;;;;;2.83;2.60;;;15.30;61.30;;;;;;5014401;28;20575;-83
2024/01/10 09:15:46;;;;;;;2.58;2.47;;;15.30;61.20;;;;;;4970398;28;20030;-83
2024/01/10 09:18:12;;;;;;;2.90;2.70;;;15.20;61.20;;;;;;5001520;28;20044;-83
2024/01/10 09:20:38;;;;;;;2.47;2.38;;;15.30;61.20;;;;;;5006811;28;20056;-82
2024/01/10 09:23:03;;;;;;;2.90;2.70;;;15.30;61.10;;;;;;5021213;28;20060;-83
2024/01/10 09:25:29;;;;;;;2.80;2.63;;;15.30;61.10;;;;;;5007374;28;20062;-83
2024/01/10 09:27:55;;;;;;;3.08;2.88;;;15.20;61.70;;;;;;4990222;28;20419;-83
2024/01/10 09:30:20;;;;;;;2.72;2.53;;;15.20;61.10;;;;;;5006646;28;20048;-83
2024/01/10 09:32:46;;;;;;;3.25;3.00;;;15.20;61.10;;;;;;5008694;28;20065;-83
2024/01/10 09:35:12;;;;;;;2.70;2.58;;;15.20;61.00;;;;;;5008281;28;20049;-82
2024/01/10 09:37:38;;;;;;;2.78;2.58;;;15.20;60.90;;;;;;5027132;28;20149;-83
2024/01/10 09:40:06;;;;;;;2.53;2.42;;;15.30;61.00;;;;;;5024615;28;20132;-83
2024/01/10 09:42:33;;;;;;;2.60;2.50;;;15.20;61.00;;;;;;5023666;28;20042;-83
2024/01/10 09:44:58;;;;;;;2.72;2.50;;;15.20;60.90;;;;;;5007266;28;20372;-83
2024/01/10 09:47:24;;;;;;;2.22;2.13;;;15.20;60.90;;;;;;5016519;28;20045;-83
2024/01/10 09:49:49;;;;;;;2.80;2.60;;;15.20;60.90;;;;;;5023155;28;20033;-83
2024/01/10 09:52:37;;;;;;;2.67;2.47;;;15.20;60.90;;;;;;5010681;28;20108;-83
2024/01/10 09:55:03;;;;;;;2.45;2.35;;;15.20;60.90;;;;;;4983692;28;20198;-83
2024/01/10 09:57:30;;;;;;;2.70;2.50;;;15.20;60.90;;;;;;4991075;28;20448;-83
2024/01/10 09:59:56;;;;;;;2.42;2.30;;;15.20;60.90;;;;;;5022350;28;20033;-83
2024/01/10 10:02:24;;;;;;;2.60;2.50;;;15.20;60.90;;;;;;5022525;28;20511;-83
2024/01/10 10:05:05;;;;;;;2.80;2.60;;;15.20;60.80;;;;;;5004922;28;20037;-83
2024/01/10 10:07:31;;;;;;;2.40;2.30;;;15.20;60.80;;;;;;5026034;28;20038;-83
2024/01/10 10:09:57;;;;;;;3.00;2.80;;;15.20;60.80;;;;;;5025239;28;20034;-83
2024/01/10 10:12:26;;;;;;;3.20;3.00;;;15.20;60.90;;;;;;5021925;28;20084;-82
2024/01/10 10:14:52;;;;;;;2.92;2.75;;;15.20;61.00;;;;;;4993632;28;21628;-83
2024/01/10 10:17:17;;;;;;;2.95;2.75;;;15.10;60.60;;;;;;5006055;28;20506;-83
2024/01/10 10:19:44;;;;;;;2.80;2.60;;;15.10;60.80;;;;;;5023855;28;20033;-83
2024/01/10 10:22:10;;;;;;;2.63;2.42;;;15.10;60.70;;;;;;5025659;28;20522;-83
2024/01/10 10:24:36;;;;;;;2.70;2.60;;;15.10;60.70;;;;;;5007506;28;20026;-83
2024/01/10 10:27:01;;;;;;;3.28;3.08;;;15.10;60.70;;;;;;5023537;28;20038;-83
2024/01/10 10:29:27;;;;;;;2.55;2.45;;;15.10;60.70;;;;;;5005526;28;20095;-83
2024/01/10 10:31:52;;;;;;;3.15;2.95;;;15.10;60.70;;;;;;4991859;28;20087;-83
2024/01/10 10:34:22;;;;;;;3.08;2.88;;;15.10;60.70;;;;;;5040633;28;20496;-82
2024/01/10 10:36:48;;;;;;;2.75;2.65;;;15.10;60.70;;;;;;5024053;28;20116;-83
2024/01/10 10:39:16;;;;;;;2.80;2.60;;;15.10;60.70;;;;;;4985044;28;20050;-83
2024/01/10 10:41:42;;;;;;;2.50;2.30;;;15.10;60.70;;;;;;5015764;28;20060;-83
2024/01/10 10:44:07;;;;;;;2.50;2.40;;;15.10;60.70;;;;;;5010557;28;20504;-83
2024/01/10 10:46:33;;;;;;;2.72;2.53;;;15.10;60.70;;;;;;4990742;28;20064;-83
2024/01/10 10:49:00;;;;;;;2.72;2.53;;;15.10;60.70;;;;;;4992872;28;20510;-83
2024/01/10 10:51:33;;;;;;;2.65;2.55;;;15.10;60.60;;;;;;5007351;28;20033;-83
2024/01/10 10:53:59;;;;;;;2.60;2.50;;;15.10;60.70;;;;;;5001116;28;20492;-83
2024/01/10 10:56:25;;;;;;;2.60;2.50;;;15.10;60.70;;;;;;5003314;28;20064;-82
2024/01/10 10:58:50;;;;;;;2.90;2.70;;;15.00;60.50;;;;;;4991906;28;20038;-83
2024/01/10 11:01:16;;;;;;;2.25;2.15;;;15.00;60.50;;;;;;5024363;28;20041;-83
2024/01/10 11:03:44;;;;;;;2.45;2.35;;;15.00;60.50;;;;;;4999159;28;20435;-82
2024/01/10 11:06:10;;;;;;;2.33;2.22;;;15.00;60.60;;;;;;5023255;28;20069;-83
2024/01/10 11:08:46;;;;;;;2.97;2.78;;;15.00;60.60;;;;;;5006164;28;20384;-83
2024/01/10 11:11:33;;;;;;;2.95;2.75;;;15.00;60.50;;;;;;4996176;28;20050;-81
2024/01/10 11:14:14;;;;;;;2.72;2.53;;;15.00;60.70;;;;;;5006442;28;20083;-83
2024/01/10 11:17:22;;;;;;;2.75;2.65;;;15.00;60.50;;;;;;5012128;28;20124;-84
2024/01/10 11:20:11;;;;;;;2.85;2.70;;;15.00;60.10;;;;;;5004095;28;20048;-84
2024/01/10 11:22:52;;;;;;;2.10;2.00;;;15.00;60.40;;;;;;5003964;28;20072;-85
2024/01/10 11:25:19;;;;;;;2.70;2.50;;;15.10;60.50;;;;;;5024988;28;20110;-87
2024/01/10 11:27:47;;;;;;;2.40;2.30;;;15.00;60.50;;;;;;4990228;28;20033;-84
2024/01/10 11:30:12;;;;;;;3.03;2.83;;;15.00;60.50;;;;;;5018505;28;20041;-84
2024/01/10 11:32:38;;;;;;;2.90;2.70;;;15.00;60.50;;;;;;4987320;28;20053;-83
2024/01/10 11:35:19;;;;;;;2.70;2.60;;;15.00;60.50;;;;;;4988930;28;20257;-84
2024/01/10 11:37:45;;;;;;;3.20;2.90;;;15.10;60.30;;;;;;4989209;28;20534;-84
2024/01/10 11:40:11;;;;;;;2.80;2.60;;;15.00;60.40;;;;;;5022761;28;20088;-84
2024/01/10 11:42:47;;;;;;;2.88;2.67;;;15.00;60.60;;;;;;5019906;28;20042;-84
2024/01/10 11:45:33;;;;;;;2.55;2.45;;;15.00;60.80;;;;;;5001946;28;20068;-84
2024/01/10 11:47:59;;;;;;;3.03;2.83;;;15.00;60.80;;;;;;5014759;28;20407;-84
2024/01/10 11:50:26;;;;;;;2.80;2.70;;;14.90;61.50;;;;;;5005613;28;20498;-84
2024/01/10 11:52:54;;;;;;;2.72;2.55;;;14.90;60.80;;;;;;5024645;28;20140;-84
2024/01/10 11:55:49;;;;;;;3.17;2.97;;;14.90;60.80;;;;;;5024166;28;20120;-85
2024/01/10 11:58:16;;;;;;;2.78;2.58;;;14.90;60.80;;;;;;5014051;28;20305;-84
2024/01/10 12:00:42;;;;;;;2.85;2.70;;;14.90;60.90;;;;;;4989089;28;20048;-84
2024/01/10 12:03:07;;;;;;;3.70;2.35;;;14.90;61.90;;;;;;4998240;28;20431;-84
2024/01/10 12:05:38;;;;;;;2.22;2.13;;;14.90;61.00;;;;;;4987581;28;20034;-84
2024/01/10 12:08:09;;;;;;;2.63;2.50;;;14.80;60.90;;;;;;4992381;28;20053;-84
2024/01/10 12:10:39;;;;;;;2.88;2.70;;;14.90;61.00;;;;;;4998532;28;20526;-84
2024/01/10 12:13:04;;;;;;;3.00;2.90;;;14.80;60.90;;;;;;5005195;28;20087;-84
2024/01/10 12:15:30;;;;;;;2.72;2.53;;;14.80;60.90;;;;;;5020307;28;20107;-84
2024/01/10 12:17:56;;;;;;;2.85;2.65;;;14.80;61.00;;;;;;4991230;28;20041;-84
2024/01/10 12:20:21;;;;;;;2.65;2.55;;;14.80;60.90;;;;;;5018661;28;20300;-84
2024/01/10 12:22:47;;;;;;;2.60;2.50;;;14.80;60.90;;;;;;5022957;28;20407;-84
2024/01/10 12:25:12;;;;;;;2.88;2.67;;;14.80;60.90;;;;;;5007488;28;20049;-84
2024/01/10 12:27:38;;;;;;;2.80;2.60;;;14.80;60.90;;;;;;4989763;28;20591;-84
2024/01/10 12:30:05;;;;;;;2.63;2.53;;;14.80;60.90;;;;;;5006745;28;20151;-84
2024/01/10 12:32:31;;;;;;;2.60;2.50;;;14.80;60.90;;;;;;5003846;28;20534;-84
2024/01/10 12:35:03;;;;;;;2.35;2.25;;;14.80;60.90;;;;;;5005653;28;20081;-84
2024/01/10 12:37:29;;;;;;;2.78;2.58;;;14.80;60.90;;;;;;5007452;28;20088;-84
2024/01/10 12:39:56;;;;;;;3.00;2.80;;;14.80;60.90;;;;;;5022248;28;20519;-84
2024/01/10 12:42:21;;;;;;;3.00;2.80;;;14.70;61.00;;;;;;4989609;28;20054;-84